EKVJ/STA METAR and TAF weather

Enter ICAO airport designator
Station Type Date Time Source
EKVJ METAR 2022/11/23 15:50 UTC NOAA

EKVJ 231550Z 12012KT 6000 SCT006 BKN008 05/05 Q1000


Station Type Date Time Source
EKVJ Decoded METAR 2022/11/23 15:50 UTC NOAA

Stauning Lufthavn, Denmark (EKVJ) 56-00N 008-21E 5M
Nov 23, 2022 - 10:50 AM EST / 2022.11.23 1550 UTC
Wind: from the ESE (120 degrees) at 14 MPH (12 KT):0
Visibility: 3 mile(s):0
Sky conditions: mostly cloudy
Temperature: 41 F (5 C)
Dew Point: 41 F (5 C)
Relative Humidity: 100%
Pressure (altimeter): 29.53 in. Hg (1000 hPa)
ob: EKVJ 231550Z 12012KT 6000 SCT006 BKN008 05/05 Q1000
cycle: 16

Station Type Date Time Source
EKVJ TAF UTC NOAA

Error!

Example: see airport list